Cleves, Ohio
Current Conditions -  °F | °C
As of 3:52 AM on Thursday 27 Nov 2014 (Local Time) from KCVG Reporting Station
Overcast Overcast  
Wind Chill: 20°   Ceiling: 10000
Heat Index: 28°   Visibility: 8mi
Dew Point: 21°   Wind: 8mph
Humidity: 75%   Direction: 320°NW
Pressure: 30.1"   Gusts: NA
Location:  39.16°N, 84.75°W
Report Text: KCVG 270852Z 32007KT 8SM OVC100 M02/M06 A3010 RMK AO2 SLP197 T10221061 53016
Loading
Personal Weather Stations






























Interactive Weather Map New forecast layout! Learn more

10-Day Weather Forecast

Advertisements
Track Severe Weather on mobile